Startpagina
METAR-TAF:

METAR-TAF

Vliegvelden :

Internationale Luchthaven Antwerpen

Antwerpen, België

breedte: 51-12N, lengte: 004-28E, hoogte: 12 m

Actueel weer

Dit bericht is 15 minuten geleden gemaakt, om 01:50 UTC
Wind 3 kt uit het zuiden
Temperatuur 2°C
Vochtigheid 93%
Druk 1025 hPa
Zicht: 1700 m
nevel

METAR: EBAW 240150Z AUTO 18003KT 1700 BR OVC002/// 02/01 Q1025

Tijdstip: 03:05 (02:05 UTC)

Verwachting

Dit bericht is 3 uur en het 5 minuten geleden gemaakt, om 23:00 UTC
Verwachting geldig van 24 om 00 UTC tot 24 om 09 UTC
Wind 3 kt uit variabele richting
Zicht: 2000 m
Verspreide wolken op 300 ft
Gebroken wolken op 500 ft
nevel
Tijdelijke
van 24 om 00 UTC tot 24 om 09 UTC
Zicht: 1200 m
Gebroken wolken op 200 ft
nevel, lichte motregen
Kans 40% :
Tijdelijke
van 24 om 00 UTC tot 24 om 07 UTC
Zicht: 0500 m
Gebroken wolken op 100 ft
mistbanken

TAF: EBAW 232300Z 2400/2409 VRB03KT 2000 BR SCT003 BKN005 TEMPO 2400/2409 1200 BR -DZ BKN002 PROB40 TEMPO 2400/2407 0500 BCFG BKN001

Waarnemingen en weersverwachtingen van meer dan 4000 vliegvelden (METAR en TAF).

De beschikbare stations zijn de gele en rode punten op de kaart.

Ga met uw muis naar het station om de naam te zien.

Klik dan om waarnemingen en weersverwachtingen te zien.

kaart wijzigen: klik op de groene knoppen met een zwart kruis om in te zoomen, op de groene knop met een streepje om uit te zoomen of op de groene pijlen voor aangrenzende kaarten.


METAR-TAF: